sensor_id;sensor_type;location;lat;lon;timestamp;P1;durP1;ratioP1;P2;durP2;ratioP2
21505;SDS011;10914;48.886;9.394;2023-05-07T00:01:30;28.40;;;26.50;;
21505;SDS011;10914;48.886;9.394;2023-05-07T00:03:56;28.17;;;26.48;;
21505;SDS011;10914;48.886;9.394;2023-05-07T00:06:21;28.05;;;26.45;;
21505;SDS011;10914;48.886;9.394;2023-05-07T00:08:47;28.63;;;26.92;;
21505;SDS011;10914;48.886;9.394;2023-05-07T00:11:13;29.05;;;27.27;;
21505;SDS011;10914;48.886;9.394;2023-05-07T00:13:38;28.05;;;26.45;;
21505;SDS011;10914;48.886;9.394;2023-05-07T00:16:03;27.95;;;26.35;;
21505;SDS011;10914;48.886;9.394;2023-05-07T00:18:29;26.67;;;25.08;;
21505;SDS011;10914;48.886;9.394;2023-05-07T00:20:54;27.63;;;25.80;;
21505;SDS011;10914;48.886;9.394;2023-05-07T00:23:19;27.85;;;26.15;;
21505;SDS011;10914;48.886;9.394;2023-05-07T00:25:44;27.00;;;25.42;;
21505;SDS011;10914;48.886;9.394;2023-05-07T00:28:09;27.15;;;25.65;;
21505;SDS011;10914;48.886;9.394;2023-05-07T00:30:35;27.38;;;25.77;;
21505;SDS011;10914;48.886;9.394;2023-05-07T00:33:00;26.73;;;25.07;;
21505;SDS011;10914;48.886;9.394;2023-05-07T00:35:25;26.85;;;25.25;;
21505;SDS011;10914;48.886;9.394;2023-05-07T00:37:50;26.57;;;24.97;;
21505;SDS011;10914;48.886;9.394;2023-05-07T00:40:16;27.63;;;26.07;;
21505;SDS011;10914;48.886;9.394;2023-05-07T00:42:41;29.50;;;27.80;;
21505;SDS011;10914;48.886;9.394;2023-05-07T00:45:06;29.43;;;27.73;;
21505;SDS011;10914;48.886;9.394;2023-05-07T00:47:32;26.95;;;25.25;;
21505;SDS011;10914;48.886;9.394;2023-05-07T00:49:58;26.38;;;24.85;;
21505;SDS011;10914;48.886;9.394;2023-05-07T00:52:24;26.40;;;24.85;;
21505;SDS011;10914;48.886;9.394;2023-05-07T00:54:50;25.10;;;23.80;;
21505;SDS011;10914;48.886;9.394;2023-05-07T00:57:15;25.92;;;24.52;;
21505;SDS011;10914;48.886;9.394;2023-05-07T00:59:40;25.63;;;24.13;;
21505;SDS011;10914;48.886;9.394;2023-05-07T01:02:06;26.85;;;25.33;;
21505;SDS011;10914;48.886;9.394;2023-05-07T01:04:31;25.42;;;24.02;;
21505;SDS011;10914;48.886;9.394;2023-05-07T01:06:57;27.10;;;25.45;;
21505;SDS011;10914;48.886;9.394;2023-05-07T01:09:23;26.00;;;24.60;;
21505;SDS011;10914;48.886;9.394;2023-05-07T01:11:49;26.38;;;24.67;;
21505;SDS011;10914;48.886;9.394;2023-05-07T01:14:15;26.33;;;24.83;;
21505;SDS011;10914;48.886;9.394;2023-05-07T01:16:40;24.73;;;23.33;;
21505;SDS011;10914;48.886;9.394;2023-05-07T01:19:06;25.75;;;24.27;;
21505;SDS011;10914;48.886;9.394;2023-05-07T01:21:33;27.17;;;25.67;;
21505;SDS011;10914;48.886;9.394;2023-05-07T01:23:59;26.83;;;25.25;;
21505;SDS011;10914;48.886;9.394;2023-05-07T01:26:25;26.75;;;25.15;;
21505;SDS011;10914;48.886;9.394;2023-05-07T01:28:50;25.20;;;23.85;;
21505;SDS011;10914;48.886;9.394;2023-05-07T01:31:16;26.27;;;24.70;;
21505;SDS011;10914;48.886;9.394;2023-05-07T01:33:41;26.20;;;24.70;;
21505;SDS011;10914;48.886;9.394;2023-05-07T01:36:07;26.00;;;24.55;;
21505;SDS011;10914;48.886;9.394;2023-05-07T01:38:34;26.42;;;24.92;;
21505;SDS011;10914;48.886;9.394;2023-05-07T01:41:00;26.27;;;24.67;;
21505;SDS011;10914;48.886;9.394;2023-05-07T01:43:25;26.50;;;25.00;;
21505;SDS011;10914;48.886;9.394;2023-05-07T01:45:50;26.15;;;24.45;;
21505;SDS011;10914;48.886;9.394;2023-05-07T01:48:16;26.85;;;25.05;;
21505;SDS011;10914;48.886;9.394;2023-05-07T01:50:42;25.88;;;24.23;;
21505;SDS011;10914;48.886;9.394;2023-05-07T01:53:08;27.30;;;25.48;;
21505;SDS011;10914;48.886;9.394;2023-05-07T01:55:33;26.73;;;25.10;;
21505;SDS011;10914;48.886;9.394;2023-05-07T01:57:58;26.87;;;25.37;;
21505;SDS011;10914;48.886;9.394;2023-05-07T02:00:23;26.58;;;24.90;;
21505;SDS011;10914;48.886;9.394;2023-05-07T02:02:49;26.65;;;25.05;;
21505;SDS011;10914;48.886;9.394;2023-05-07T02:05:14;27.95;;;26.35;;
21505;SDS011;10914;48.886;9.394;2023-05-07T02:07:39;26.43;;;24.90;;
21505;SDS011;10914;48.886;9.394;2023-05-07T02:10:05;26.90;;;25.40;;
21505;SDS011;10914;48.886;9.394;2023-05-07T02:12:30;26.83;;;25.25;;
21505;SDS011;10914;48.886;9.394;2023-05-07T02:14:55;26.30;;;24.80;;
21505;SDS011;10914;48.886;9.394;2023-05-07T02:17:20;27.13;;;25.63;;
21505;SDS011;10914;48.886;9.394;2023-05-07T02:19:46;28.92;;;26.65;;
21505;SDS011;10914;48.886;9.394;2023-05-07T02:22:11;27.67;;;25.88;;
21505;SDS011;10914;48.886;9.394;2023-05-07T02:24:36;28.00;;;26.42;;
21505;SDS011;10914;48.886;9.394;2023-05-07T02:27:01;27.92;;;26.23;;
21505;SDS011;10914;48.886;9.394;2023-05-07T02:29:28;28.20;;;26.42;;
21505;SDS011;10914;48.886;9.394;2023-05-07T02:31:53;28.88;;;27.13;;
21505;SDS011;10914;48.886;9.394;2023-05-07T02:34:18;30.42;;;28.48;;
21505;SDS011;10914;48.886;9.394;2023-05-07T02:36:44;30.45;;;28.67;;
21505;SDS011;10914;48.886;9.394;2023-05-07T02:39:09;29.80;;;27.92;;
21505;SDS011;10914;48.886;9.394;2023-05-07T02:41:34;28.77;;;27.08;;
21505;SDS011;10914;48.886;9.394;2023-05-07T02:43:59;27.48;;;25.73;;
21505;SDS011;10914;48.886;9.394;2023-05-07T02:46:25;27.95;;;26.35;;
21505;SDS011;10914;48.886;9.394;2023-05-07T02:48:50;28.27;;;26.67;;
21505;SDS011;10914;48.886;9.394;2023-05-07T02:51:16;30.83;;;28.93;;
21505;SDS011;10914;48.886;9.394;2023-05-07T02:53:41;29.65;;;27.95;;
21505;SDS011;10914;48.886;9.394;2023-05-07T02:56:06;30.65;;;28.80;;
21505;SDS011;10914;48.886;9.394;2023-05-07T02:58:32;29.65;;;28.05;;
21505;SDS011;10914;48.886;9.394;2023-05-07T03:00:57;31.13;;;29.23;;
21505;SDS011;10914;48.886;9.394;2023-05-07T03:03:22;33.65;;;31.65;;
21505;SDS011;10914;48.886;9.394;2023-05-07T03:05:47;34.20;;;32.20;;
21505;SDS011;10914;48.886;9.394;2023-05-07T03:08:12;36.07;;;34.07;;
21505;SDS011;10914;48.886;9.394;2023-05-07T03:10:38;36.35;;;34.22;;
21505;SDS011;10914;48.886;9.394;2023-05-07T03:13:04;40.22;;;37.85;;
21505;SDS011;10914;48.886;9.394;2023-05-07T03:15:29;38.65;;;36.65;;
21505;SDS011;10914;48.886;9.394;2023-05-07T03:17:55;41.35;;;39.20;;
21505;SDS011;10914;48.886;9.394;2023-05-07T03:20:20;37.97;;;35.85;;
21505;SDS011;10914;48.886;9.394;2023-05-07T03:22:45;40.15;;;37.97;;
21505;SDS011;10914;48.886;9.394;2023-05-07T03:25:12;38.50;;;36.33;;
21505;SDS011;10914;48.886;9.394;2023-05-07T03:27:37;38.60;;;36.53;;
21505;SDS011;10914;48.886;9.394;2023-05-07T03:30:03;40.33;;;38.28;;
21505;SDS011;10914;48.886;9.394;2023-05-07T03:32:28;40.45;;;38.25;;
21505;SDS011;10914;48.886;9.394;2023-05-07T03:34:53;38.50;;;36.30;;
21505;SDS011;10914;48.886;9.394;2023-05-07T03:37:18;38.80;;;36.78;;
21505;SDS011;10914;48.886;9.394;2023-05-07T03:39:44;37.55;;;35.58;;
21505;SDS011;10914;48.886;9.394;2023-05-07T03:42:09;36.63;;;34.63;;
21505;SDS011;10914;48.886;9.394;2023-05-07T03:44:34;35.90;;;34.00;;
21505;SDS011;10914;48.886;9.394;2023-05-07T03:47:01;36.22;;;34.22;;
21505;SDS011;10914;48.886;9.394;2023-05-07T03:49:26;37.75;;;35.72;;
21505;SDS011;10914;48.886;9.394;2023-05-07T03:51:51;36.22;;;34.33;;
21505;SDS011;10914;48.886;9.394;2023-05-07T03:54:16;36.08;;;34.10;;
21505;SDS011;10914;48.886;9.394;2023-05-07T03:56:42;35.72;;;33.75;;
21505;SDS011;10914;48.886;9.394;2023-05-07T03:59:07;34.40;;;32.27;;
21505;SDS011;10914;48.886;9.394;2023-05-07T04:01:32;34.10;;;32.28;;
21505;SDS011;10914;48.886;9.394;2023-05-07T04:03:57;33.37;;;31.47;;
21505;SDS011;10914;48.886;9.394;2023-05-07T04:06:23;34.30;;;32.38;;
21505;SDS011;10914;48.886;9.394;2023-05-07T04:08:48;33.85;;;32.03;;
21505;SDS011;10914;48.886;9.394;2023-05-07T04:11:13;32.72;;;30.90;;
21505;SDS011;10914;48.886;9.394;2023-05-07T04:13:38;34.20;;;32.40;;
21505;SDS011;10914;48.886;9.394;2023-05-07T04:16:04;35.20;;;33.10;;
21505;SDS011;10914;48.886;9.394;2023-05-07T04:18:29;35.45;;;33.50;;
21505;SDS011;10914;48.886;9.394;2023-05-07T04:20:55;36.05;;;33.95;;
21505;SDS011;10914;48.886;9.394;2023-05-07T04:23:20;35.77;;;33.67;;
21505;SDS011;10914;48.886;9.394;2023-05-07T04:25:45;36.90;;;35.00;;
21505;SDS011;10914;48.886;9.394;2023-05-07T04:28:10;36.95;;;34.70;;
21505;SDS011;10914;48.886;9.394;2023-05-07T04:30:36;35.70;;;33.72;;
21505;SDS011;10914;48.886;9.394;2023-05-07T04:33:01;36.20;;;33.85;;
21505;SDS011;10914;48.886;9.394;2023-05-07T04:35:26;37.03;;;35.00;;
21505;SDS011;10914;48.886;9.394;2023-05-07T04:37:52;35.93;;;34.00;;
21505;SDS011;10914;48.886;9.394;2023-05-07T04:40:17;34.13;;;32.13;;
21505;SDS011;10914;48.886;9.394;2023-05-07T04:42:42;32.15;;;30.45;;
21505;SDS011;10914;48.886;9.394;2023-05-07T04:45:07;30.73;;;29.02;;
21505;SDS011;10914;48.886;9.394;2023-05-07T04:47:33;28.80;;;27.15;;
21505;SDS011;10914;48.886;9.394;2023-05-07T04:49:59;28.55;;;26.83;;
21505;SDS011;10914;48.886;9.394;2023-05-07T04:52:24;28.15;;;26.55;;
21505;SDS011;10914;48.886;9.394;2023-05-07T04:54:49;26.60;;;25.20;;
21505;SDS011;10914;48.886;9.394;2023-05-07T04:57:14;29.60;;;28.10;;
21505;SDS011;10914;48.886;9.394;2023-05-07T04:59:41;26.95;;;25.45;;
21505;SDS011;10914;48.886;9.394;2023-05-07T05:02:07;29.83;;;28.13;;
21505;SDS011;10914;48.886;9.394;2023-05-07T05:04:32;25.80;;;24.40;;
21505;SDS011;10914;48.886;9.394;2023-05-07T05:06:57;25.60;;;24.20;;
21505;SDS011;10914;48.886;9.394;2023-05-07T05:09:22;27.67;;;26.20;;
21505;SDS011;10914;48.886;9.394;2023-05-07T05:11:48;27.63;;;25.92;;
21505;SDS011;10914;48.886;9.394;2023-05-07T05:14:13;27.80;;;26.30;;
21505;SDS011;10914;48.886;9.394;2023-05-07T05:16:38;26.80;;;25.40;;
21505;SDS011;10914;48.886;9.394;2023-05-07T05:19:03;30.77;;;29.13;;
21505;SDS011;10914;48.886;9.394;2023-05-07T05:21:28;31.40;;;29.70;;
21505;SDS011;10914;48.886;9.394;2023-05-07T05:23:53;31.40;;;29.65;;
21505;SDS011;10914;48.886;9.394;2023-05-07T05:26:19;28.10;;;26.52;;
21505;SDS011;10914;48.886;9.394;2023-05-07T05:28:46;26.52;;;25.10;;
21505;SDS011;10914;48.886;9.394;2023-05-07T05:31:11;26.92;;;25.45;;
21505;SDS011;10914;48.886;9.394;2023-05-07T05:33:36;27.27;;;25.60;;
21505;SDS011;10914;48.886;9.394;2023-05-07T05:36:01;25.87;;;24.47;;
21505;SDS011;10914;48.886;9.394;2023-05-07T05:38:26;28.02;;;26.23;;
21505;SDS011;10914;48.886;9.394;2023-05-07T05:40:52;27.93;;;26.30;;
21505;SDS011;10914;48.886;9.394;2023-05-07T05:43:17;28.38;;;26.73;;
21505;SDS011;10914;48.886;9.394;2023-05-07T05:45:42;28.27;;;26.77;;
21505;SDS011;10914;48.886;9.394;2023-05-07T05:48:07;29.95;;;28.25;;
21505;SDS011;10914;48.886;9.394;2023-05-07T05:50:35;25.23;;;23.85;;
21505;SDS011;10914;48.886;9.394;2023-05-07T05:53:01;25.73;;;24.17;;
21505;SDS011;10914;48.886;9.394;2023-05-07T05:55:26;24.50;;;23.10;;
21505;SDS011;10914;48.886;9.394;2023-05-07T05:57:52;25.00;;;23.38;;
21505;SDS011;10914;48.886;9.394;2023-05-07T06:00:17;24.90;;;23.40;;
21505;SDS011;10914;48.886;9.394;2023-05-07T06:02:42;24.15;;;22.75;;
21505;SDS011;10914;48.886;9.394;2023-05-07T06:05:08;24.67;;;23.38;;
21505;SDS011;10914;48.886;9.394;2023-05-07T06:07:33;25.63;;;24.25;;
21505;SDS011;10914;48.886;9.394;2023-05-07T06:09:59;28.02;;;26.50;;
21505;SDS011;10914;48.886;9.394;2023-05-07T06:12:24;29.40;;;27.80;;
21505;SDS011;10914;48.886;9.394;2023-05-07T06:14:49;30.90;;;29.30;;
21505;SDS011;10914;48.886;9.394;2023-05-07T06:17:15;29.05;;;27.45;;
21505;SDS011;10914;48.886;9.394;2023-05-07T06:19:40;27.25;;;25.75;;
21505;SDS011;10914;48.886;9.394;2023-05-07T06:22:05;25.00;;;23.70;;
21505;SDS011;10914;48.886;9.394;2023-05-07T06:24:30;25.52;;;24.23;;
21505;SDS011;10914;48.886;9.394;2023-05-07T06:26:56;23.87;;;22.67;;
21505;SDS011;10914;48.886;9.394;2023-05-07T06:29:21;23.23;;;22.05;;
21505;SDS011;10914;48.886;9.394;2023-05-07T06:31:46;23.35;;;21.92;;
21505;SDS011;10914;48.886;9.394;2023-05-07T06:34:11;23.57;;;22.27;;
21505;SDS011;10914;48.886;9.394;2023-05-07T06:36:39;23.60;;;22.30;;
21505;SDS011;10914;48.886;9.394;2023-05-07T06:39:04;22.83;;;21.42;;
21505;SDS011;10914;48.886;9.394;2023-05-07T06:41:30;24.00;;;22.77;;
21505;SDS011;10914;48.886;9.394;2023-05-07T06:43:55;22.65;;;21.45;;
21505;SDS011;10914;48.886;9.394;2023-05-07T06:46:20;21.60;;;20.50;;
21505;SDS011;10914;48.886;9.394;2023-05-07T06:48:45;21.38;;;20.20;;
21505;SDS011;10914;48.886;9.394;2023-05-07T06:51:10;21.38;;;20.23;;
21505;SDS011;10914;48.886;9.394;2023-05-07T06:53:36;21.40;;;20.30;;
21505;SDS011;10914;48.886;9.394;2023-05-07T06:56:01;21.87;;;20.67;;
21505;SDS011;10914;48.886;9.394;2023-05-07T06:58:26;21.08;;;19.95;;
21505;SDS011;10914;48.886;9.394;2023-05-07T07:00:51;21.67;;;20.48;;
21505;SDS011;10914;48.886;9.394;2023-05-07T07:03:16;21.63;;;20.33;;
21505;SDS011;10914;48.886;9.394;2023-05-07T07:05:41;21.83;;;20.60;;
21505;SDS011;10914;48.886;9.394;2023-05-07T07:08:07;21.90;;;20.80;;
21505;SDS011;10914;48.886;9.394;2023-05-07T07:10:32;22.45;;;21.15;;
21505;SDS011;10914;48.886;9.394;2023-05-07T07:12:57;22.47;;;21.17;;
21505;SDS011;10914;48.886;9.394;2023-05-07T07:15:22;21.40;;;20.40;;
21505;SDS011;10914;48.886;9.394;2023-05-07T07:17:49;21.73;;;20.50;;
21505;SDS011;10914;48.886;9.394;2023-05-07T07:20:15;20.70;;;19.67;;
21505;SDS011;10914;48.886;9.394;2023-05-07T07:22:40;20.93;;;19.83;;
21505;SDS011;10914;48.886;9.394;2023-05-07T07:25:05;22.33;;;20.92;;
21505;SDS011;10914;48.886;9.394;2023-05-07T07:27:31;23.80;;;22.20;;
21505;SDS011;10914;48.886;9.394;2023-05-07T07:29:57;21.52;;;20.45;;
21505;SDS011;10914;48.886;9.394;2023-05-07T07:32:22;20.83;;;19.73;;
21505;SDS011;10914;48.886;9.394;2023-05-07T07:34:47;20.47;;;19.30;;
21505;SDS011;10914;48.886;9.394;2023-05-07T07:37:12;20.53;;;19.53;;
21505;SDS011;10914;48.886;9.394;2023-05-07T07:39:38;19.85;;;18.83;;
21505;SDS011;10914;48.886;9.394;2023-05-07T07:42:03;20.10;;;18.92;;
21505;SDS011;10914;48.886;9.394;2023-05-07T07:44:28;19.30;;;18.20;;
21505;SDS011;10914;48.886;9.394;2023-05-07T07:46:53;19.77;;;18.80;;
21505;SDS011;10914;48.886;9.394;2023-05-07T07:49:18;19.60;;;18.50;;
21505;SDS011;10914;48.886;9.394;2023-05-07T07:51:44;19.63;;;18.42;;
21505;SDS011;10914;48.886;9.394;2023-05-07T07:54:09;19.23;;;18.13;;
21505;SDS011;10914;48.886;9.394;2023-05-07T07:56:34;19.80;;;18.80;;
21505;SDS011;10914;48.886;9.394;2023-05-07T07:59:00;19.48;;;18.40;;
21505;SDS011;10914;48.886;9.394;2023-05-07T08:01:25;19.17;;;18.20;;
21505;SDS011;10914;48.886;9.394;2023-05-07T08:03:51;19.42;;;18.50;;
21505;SDS011;10914;48.886;9.394;2023-05-07T08:06:16;19.85;;;18.75;;
21505;SDS011;10914;48.886;9.394;2023-05-07T08:08:41;19.10;;;18.10;;
21505;SDS011;10914;48.886;9.394;2023-05-07T08:11:06;19.65;;;18.55;;
21505;SDS011;10914;48.886;9.394;2023-05-07T08:13:32;19.95;;;18.80;;
21505;SDS011;10914;48.886;9.394;2023-05-07T08:15:57;20.43;;;19.03;;
21505;SDS011;10914;48.886;9.394;2023-05-07T08:18:22;19.80;;;18.60;;
21505;SDS011;10914;48.886;9.394;2023-05-07T08:20:49;20.17;;;19.08;;
21505;SDS011;10914;48.886;9.394;2023-05-07T08:23:14;20.13;;;19.02;;
21505;SDS011;10914;48.886;9.394;2023-05-07T08:25:40;19.97;;;18.77;;
21505;SDS011;10914;48.886;9.394;2023-05-07T08:28:05;19.80;;;18.73;;
21505;SDS011;10914;48.886;9.394;2023-05-07T08:30:30;20.03;;;18.93;;
21505;SDS011;10914;48.886;9.394;2023-05-07T08:32:55;19.83;;;18.80;;
21505;SDS011;10914;48.886;9.394;2023-05-07T08:35:20;20.13;;;19.10;;
21505;SDS011;10914;48.886;9.394;2023-05-07T08:37:46;20.42;;;19.27;;
21505;SDS011;10914;48.886;9.394;2023-05-07T08:40:11;19.90;;;18.80;;
21505;SDS011;10914;48.886;9.394;2023-05-07T08:42:36;20.45;;;19.35;;
21505;SDS011;10914;48.886;9.394;2023-05-07T08:45:02;20.92;;;19.70;;
21505;SDS011;10914;48.886;9.394;2023-05-07T08:47:33;20.92;;;19.83;;
21505;SDS011;10914;48.886;9.394;2023-05-07T08:50:00;20.90;;;19.70;;
21505;SDS011;10914;48.886;9.394;2023-05-07T08:52:26;20.80;;;19.77;;
21505;SDS011;10914;48.886;9.394;2023-05-07T08:54:51;20.48;;;19.42;;
21505;SDS011;10914;48.886;9.394;2023-05-07T08:57:16;20.90;;;19.80;;
21505;SDS011;10914;48.886;9.394;2023-05-07T08:59:41;21.03;;;19.73;;
21505;SDS011;10914;48.886;9.394;2023-05-07T09:02:07;21.67;;;20.40;;
21505;SDS011;10914;48.886;9.394;2023-05-07T09:04:34;21.17;;;19.90;;
21505;SDS011;10914;48.886;9.394;2023-05-07T09:06:59;21.58;;;20.42;;
21505;SDS011;10914;48.886;9.394;2023-05-07T09:09:31;20.13;;;18.80;;
21505;SDS011;10914;48.886;9.394;2023-05-07T09:11:57;20.15;;;19.05;;
21505;SDS011;10914;48.886;9.394;2023-05-07T09:14:24;21.10;;;20.10;;
21505;SDS011;10914;48.886;9.394;2023-05-07T09:16:51;20.05;;;19.05;;
21505;SDS011;10914;48.886;9.394;2023-05-07T09:19:21;21.55;;;20.50;;
21505;SDS011;10914;48.886;9.394;2023-05-07T09:21:46;20.40;;;19.38;;
21505;SDS011;10914;48.886;9.394;2023-05-07T09:24:12;20.67;;;19.67;;
21505;SDS011;10914;48.886;9.394;2023-05-07T09:26:40;25.67;;;24.27;;
21505;SDS011;10914;48.886;9.394;2023-05-07T09:29:05;27.60;;;26.17;;
21505;SDS011;10914;48.886;9.394;2023-05-07T09:31:31;21.75;;;20.65;;
21505;SDS011;10914;48.886;9.394;2023-05-07T09:33:56;23.00;;;21.90;;
21505;SDS011;10914;48.886;9.394;2023-05-07T09:36:22;19.33;;;18.35;;
21505;SDS011;10914;48.886;9.394;2023-05-07T09:38:47;19.15;;;18.15;;
21505;SDS011;10914;48.886;9.394;2023-05-07T09:41:13;21.02;;;19.73;;
21505;SDS011;10914;48.886;9.394;2023-05-07T09:43:39;20.20;;;19.10;;
21505;SDS011;10914;48.886;9.394;2023-05-07T09:48:36;19.67;;;18.67;;
21505;SDS011;10914;48.886;9.394;2023-05-07T09:51:02;20.17;;;19.08;;
21505;SDS011;10914;48.886;9.394;2023-05-07T09:53:29;19.33;;;18.23;;
21505;SDS011;10914;48.886;9.394;2023-05-07T09:55:54;18.80;;;17.90;;
21505;SDS011;10914;48.886;9.394;2023-05-07T09:58:21;18.48;;;17.27;;
21505;SDS011;10914;48.886;9.394;2023-05-07T10:00:47;19.05;;;17.95;;
21505;SDS011;10914;48.886;9.394;2023-05-07T10:03:14;19.05;;;18.05;;
21505;SDS011;10914;48.886;9.394;2023-05-07T10:05:39;19.70;;;18.60;;
21505;SDS011;10914;48.886;9.394;2023-05-07T10:08:05;19.40;;;18.40;;
21505;SDS011;10914;48.886;9.394;2023-05-07T10:10:32;20.98;;;19.88;;
21505;SDS011;10914;48.886;9.394;2023-05-07T10:12:57;19.25;;;18.25;;
21505;SDS011;10914;48.886;9.394;2023-05-07T10:15:23;19.40;;;18.27;;
21505;SDS011;10914;48.886;9.394;2023-05-07T10:17:49;19.27;;;18.13;;
21505;SDS011;10914;48.886;9.394;2023-05-07T10:20:14;19.00;;;18.00;;
21505;SDS011;10914;48.886;9.394;2023-05-07T10:22:43;19.10;;;18.10;;
21505;SDS011;10914;48.886;9.394;2023-05-07T10:25:14;18.95;;;17.95;;
21505;SDS011;10914;48.886;9.394;2023-05-07T10:27:41;19.42;;;18.33;;
21505;SDS011;10914;48.886;9.394;2023-05-07T10:30:21;18.92;;;18.02;;
21505;SDS011;10914;48.886;9.394;2023-05-07T10:32:53;18.50;;;17.60;;
21505;SDS011;10914;48.886;9.394;2023-05-07T10:35:23;18.85;;;17.85;;
21505;SDS011;10914;48.886;9.394;2023-05-07T10:37:49;19.20;;;18.20;;
21505;SDS011;10914;48.886;9.394;2023-05-07T10:40:15;18.92;;;17.83;;
21505;SDS011;10914;48.886;9.394;2023-05-07T10:43:01;19.00;;;17.80;;
21505;SDS011;10914;48.886;9.394;2023-05-07T10:45:26;18.95;;;17.75;;
21505;SDS011;10914;48.886;9.394;2023-05-07T10:48:11;18.90;;;17.77;;
21505;SDS011;10914;48.886;9.394;2023-05-07T10:50:45;18.35;;;17.35;;
21505;SDS011;10914;48.886;9.394;2023-05-07T10:55:42;19.00;;;18.05;;
21505;SDS011;10914;48.886;9.394;2023-05-07T10:58:26;19.27;;;18.25;;
21505;SDS011;10914;48.886;9.394;2023-05-07T11:00:55;18.60;;;17.67;;
21505;SDS011;10914;48.886;9.394;2023-05-07T11:03:21;17.58;;;16.63;;
21505;SDS011;10914;48.886;9.394;2023-05-07T11:05:47;18.33;;;17.33;;
21505;SDS011;10914;48.886;9.394;2023-05-07T11:08:13;19.48;;;18.48;;
21505;SDS011;10914;48.886;9.394;2023-05-07T11:10:55;18.47;;;17.50;;
21505;SDS011;10914;48.886;9.394;2023-05-07T11:16:05;18.27;;;17.27;;
21505;SDS011;10914;48.886;9.394;2023-05-07T11:18:47;19.00;;;17.80;;
21505;SDS011;10914;48.886;9.394;2023-05-07T11:21:14;17.67;;;16.80;;
21505;SDS011;10914;48.886;9.394;2023-05-07T11:23:56;17.60;;;16.67;;
21505;SDS011;10914;48.886;9.394;2023-05-07T11:26:21;17.23;;;16.33;;
21505;SDS011;10914;48.886;9.394;2023-05-07T11:28:47;16.70;;;15.90;;
21505;SDS011;10914;48.886;9.394;2023-05-07T11:31:12;17.98;;;17.08;;
21505;SDS011;10914;48.886;9.394;2023-05-07T11:33:37;17.60;;;16.70;;
21505;SDS011;10914;48.886;9.394;2023-05-07T11:36:03;18.30;;;16.95;;
21505;SDS011;10914;48.886;9.394;2023-05-07T11:38:29;17.50;;;16.60;;
21505;SDS011;10914;48.886;9.394;2023-05-07T11:40:58;18.05;;;17.05;;
21505;SDS011;10914;48.886;9.394;2023-05-07T11:43:25;18.17;;;17.23;;
21505;SDS011;10914;48.886;9.394;2023-05-07T11:45:50;18.80;;;17.80;;
21505;SDS011;10914;48.886;9.394;2023-05-07T11:48:16;18.60;;;17.50;;
21505;SDS011;10914;48.886;9.394;2023-05-07T11:50:50;16.70;;;15.80;;
21505;SDS011;10914;48.886;9.394;2023-05-07T11:53:16;17.50;;;16.60;;
21505;SDS011;10914;48.886;9.394;2023-05-07T11:55:42;17.95;;;16.85;;
21505;SDS011;10914;48.886;9.394;2023-05-07T11:58:08;18.40;;;17.30;;
21505;SDS011;10914;48.886;9.394;2023-05-07T12:00:34;18.10;;;17.20;;
21505;SDS011;10914;48.886;9.394;2023-05-07T12:03:03;17.80;;;16.88;;
21505;SDS011;10914;48.886;9.394;2023-05-07T12:05:28;17.13;;;16.23;;
21505;SDS011;10914;48.886;9.394;2023-05-07T12:07:55;17.30;;;16.40;;
21505;SDS011;10914;48.886;9.394;2023-05-07T12:10:20;17.75;;;16.85;;
21505;SDS011;10914;48.886;9.394;2023-05-07T12:12:46;17.40;;;16.60;;
21505;SDS011;10914;48.886;9.394;2023-05-07T12:15:13;17.27;;;16.38;;
21505;SDS011;10914;48.886;9.394;2023-05-07T12:17:40;18.50;;;17.50;;
21505;SDS011;10914;48.886;9.394;2023-05-07T12:20:06;17.50;;;16.70;;
21505;SDS011;10914;48.886;9.394;2023-05-07T12:22:31;18.27;;;17.27;;
21505;SDS011;10914;48.886;9.394;2023-05-07T12:24:56;17.50;;;16.50;;
21505;SDS011;10914;48.886;9.394;2023-05-07T12:27:22;17.80;;;16.88;;
21505;SDS011;10914;48.886;9.394;2023-05-07T12:29:48;18.17;;;17.15;;
21505;SDS011;10914;48.886;9.394;2023-05-07T12:32:16;17.88;;;16.98;;
21505;SDS011;10914;48.886;9.394;2023-05-07T12:34:42;18.20;;;17.10;;
21505;SDS011;10914;48.886;9.394;2023-05-07T12:37:08;18.80;;;17.80;;
21505;SDS011;10914;48.886;9.394;2023-05-07T12:39:33;18.40;;;17.30;;
21505;SDS011;10914;48.886;9.394;2023-05-07T12:41:58;18.55;;;17.55;;
21505;SDS011;10914;48.886;9.394;2023-05-07T12:44:25;18.23;;;17.15;;
21505;SDS011;10914;48.886;9.394;2023-05-07T12:46:50;18.25;;;17.35;;
21505;SDS011;10914;48.886;9.394;2023-05-07T12:49:16;18.00;;;17.10;;
21505;SDS011;10914;48.886;9.394;2023-05-07T12:51:43;18.45;;;17.55;;
21505;SDS011;10914;48.886;9.394;2023-05-07T12:54:08;18.08;;;17.17;;
21505;SDS011;10914;48.886;9.394;2023-05-07T12:56:35;17.90;;;17.00;;
21505;SDS011;10914;48.886;9.394;2023-05-07T12:59:00;18.15;;;17.20;;
21505;SDS011;10914;48.886;9.394;2023-05-07T13:01:33;18.30;;;17.30;;
21505;SDS011;10914;48.886;9.394;2023-05-07T13:04:05;18.38;;;17.38;;
21505;SDS011;10914;48.886;9.394;2023-05-07T13:06:30;18.30;;;17.40;;
21505;SDS011;10914;48.886;9.394;2023-05-07T13:08:56;19.60;;;18.60;;
21505;SDS011;10914;48.886;9.394;2023-05-07T13:11:21;21.60;;;20.50;;
21505;SDS011;10914;48.886;9.394;2023-05-07T13:13:47;20.55;;;19.55;;
21505;SDS011;10914;48.886;9.394;2023-05-07T13:16:12;20.83;;;19.73;;
21505;SDS011;10914;48.886;9.394;2023-05-07T13:18:38;19.57;;;18.57;;
21505;SDS011;10914;48.886;9.394;2023-05-07T13:21:03;21.00;;;19.65;;
21505;SDS011;10914;48.886;9.394;2023-05-07T13:23:29;22.88;;;21.67;;
21505;SDS011;10914;48.886;9.394;2023-05-07T13:25:54;20.40;;;19.40;;
21505;SDS011;10914;48.886;9.394;2023-05-07T13:28:20;21.20;;;20.10;;
21505;SDS011;10914;48.886;9.394;2023-05-07T13:30:46;20.08;;;18.98;;
21505;SDS011;10914;48.886;9.394;2023-05-07T13:33:11;22.27;;;21.00;;
21505;SDS011;10914;48.886;9.394;2023-05-07T13:35:37;22.27;;;21.08;;
21505;SDS011;10914;48.886;9.394;2023-05-07T13:38:02;23.48;;;21.15;;
21505;SDS011;10914;48.886;9.394;2023-05-07T13:40:28;19.45;;;18.45;;
21505;SDS011;10914;48.886;9.394;2023-05-07T13:42:53;20.40;;;19.30;;
21505;SDS011;10914;48.886;9.394;2023-05-07T13:45:18;22.23;;;21.03;;
21505;SDS011;10914;48.886;9.394;2023-05-07T13:47:43;23.45;;;22.20;;
21505;SDS011;10914;48.886;9.394;2023-05-07T13:50:10;24.15;;;22.70;;
21505;SDS011;10914;48.886;9.394;2023-05-07T13:52:36;23.30;;;22.10;;
21505;SDS011;10914;48.886;9.394;2023-05-07T13:55:01;21.35;;;20.05;;
21505;SDS011;10914;48.886;9.394;2023-05-07T13:57:26;22.00;;;20.80;;
21505;SDS011;10914;48.886;9.394;2023-05-07T13:59:51;22.27;;;20.95;;
21505;SDS011;10914;48.886;9.394;2023-05-07T14:02:17;22.43;;;21.07;;
21505;SDS011;10914;48.886;9.394;2023-05-07T14:04:42;22.70;;;21.40;;
21505;SDS011;10914;48.886;9.394;2023-05-07T14:07:07;22.08;;;20.67;;
21505;SDS011;10914;48.886;9.394;2023-05-07T14:09:32;22.45;;;21.15;;
21505;SDS011;10914;48.886;9.394;2023-05-07T14:11:58;21.97;;;20.87;;
21505;SDS011;10914;48.886;9.394;2023-05-07T14:14:23;21.50;;;20.15;;
21505;SDS011;10914;48.886;9.394;2023-05-07T14:16:49;21.83;;;20.63;;
21505;SDS011;10914;48.886;9.394;2023-05-07T14:19:14;23.90;;;22.50;;
21505;SDS011;10914;48.886;9.394;2023-05-07T14:21:39;23.10;;;21.90;;